createdAt,value
2023-05-20T00:01:44.159Z,3.43
2023-05-20T00:06:54.199Z,4.20
2023-05-20T00:09:22.891Z,3.20
2023-05-20T00:11:50.170Z,2.70
2023-05-20T00:14:17.500Z,3.57
2023-05-20T00:16:44.904Z,3.03
2023-05-20T00:26:01.888Z,2.90
2023-05-20T00:28:29.574Z,3.37
2023-05-20T00:30:56.886Z,3.60
2023-05-20T00:33:24.221Z,3.40
2023-05-20T00:35:51.633Z,3.20
2023-05-20T00:40:54.838Z,3.87
2023-05-20T00:43:23.570Z,3.00
2023-05-20T00:45:51.033Z,3.80
2023-05-20T00:48:18.813Z,2.80
2023-05-20T00:50:46.142Z,2.97
2023-05-20T00:53:13.835Z,3.67
2023-05-20T01:02:22.877Z,3.47
2023-05-20T01:04:50.958Z,3.47
2023-05-20T01:07:18.881Z,4.07
2023-05-20T01:09:52.086Z,3.97
2023-05-20T01:12:21.814Z,3.47
2023-05-20T01:14:49.856Z,3.50
2023-05-20T01:17:17.402Z,3.87
2023-05-20T01:19:46.486Z,3.60
2023-05-20T01:22:14.589Z,4.00
2023-05-20T01:25:00.227Z,3.60
2023-05-20T01:27:27.580Z,3.77
2023-05-20T01:29:54.912Z,3.60
2023-05-20T01:32:23.852Z,3.97
2023-05-20T01:35:22.394Z,3.93
2023-05-20T01:41:29.504Z,3.80
2023-05-20T01:43:56.829Z,3.77
2023-05-20T01:46:24.728Z,4.40
2023-05-20T01:48:53.183Z,3.67
2023-05-20T01:51:20.446Z,3.90
2023-05-20T01:54:10.299Z,3.40
2023-05-20T01:56:39.068Z,4.20
2023-05-20T01:59:06.394Z,4.00
2023-05-20T02:01:33.686Z,4.27
2023-05-20T02:11:11.075Z,4.33
2023-05-20T02:13:39.852Z,3.57
2023-05-20T02:16:07.349Z,4.13
2023-05-20T02:18:35.718Z,3.93
2023-05-20T02:21:03.204Z,3.67
2023-05-20T02:23:51.362Z,3.90
2023-05-20T02:26:18.625Z,3.60
2023-05-20T02:28:47.490Z,4.03
2023-05-20T02:31:14.741Z,3.53
2023-05-20T02:40:52.416Z,4.13
2023-05-20T02:43:19.923Z,4.13
2023-05-20T02:45:48.594Z,4.17
2023-05-20T02:48:16.074Z,4.17
2023-05-20T02:50:43.352Z,4.30
2023-05-20T02:53:26.015Z,3.67
2023-05-20T02:55:53.442Z,3.87
2023-05-20T02:58:20.853Z,3.93
2023-05-20T03:00:49.495Z,4.03
2023-05-20T03:03:39.630Z,3.40
2023-05-20T03:09:55.450Z,4.47
2023-05-20T03:12:22.811Z,3.60
2023-05-20T03:14:50.253Z,3.47
2023-05-20T03:17:18.867Z,3.93
2023-05-20T03:19:46.158Z,4.23
2023-05-20T03:22:13.522Z,5.00
2023-05-20T03:24:42.141Z,4.00
2023-05-20T03:27:09.637Z,4.60
2023-05-20T03:29:37.294Z,3.60
2023-05-20T03:32:05.422Z,4.23
2023-05-20T03:41:19.916Z,3.67
2023-05-20T03:43:47.380Z,4.30
2023-05-20T03:46:14.729Z,4.33
2023-05-20T03:48:42.106Z,4.03
2023-05-20T03:51:09.385Z,2.67
2023-05-20T03:53:59.333Z,4.13
2023-05-20T03:56:27.999Z,4.50
2023-05-20T03:58:55.303Z,4.07
2023-05-20T04:12:33.720Z,3.57
2023-05-20T04:15:01.636Z,4.00
2023-05-20T04:17:32.922Z,4.17
2023-05-20T04:20:00.452Z,4.63
2023-05-20T04:25:19.624Z,4.40
2023-05-20T04:27:48.491Z,4.60
2023-05-20T04:30:16.780Z,3.57
2023-05-20T04:32:44.618Z,4.10
2023-05-20T04:35:12.338Z,4.60
2023-05-20T04:38:13.661Z,4.73
2023-05-20T04:44:20.243Z,4.07
2023-05-20T04:46:47.609Z,4.33
2023-05-20T04:49:15.427Z,4.03
2023-05-20T04:51:45.795Z,4.83
2023-05-20T04:54:13.166Z,4.77
2023-05-20T04:59:23.740Z,4.27
2023-05-20T05:01:51.556Z,4.57
2023-05-20T05:04:19.081Z,4.57
2023-05-20T05:06:48.610Z,4.40
2023-05-20T05:09:15.955Z,4.63
2023-05-20T05:11:45.010Z,4.40
2023-05-20T05:18:01.478Z,5.20
2023-05-20T05:20:32.238Z,3.90
2023-05-20T05:22:59.794Z,4.17
2023-05-20T05:25:27.155Z,3.37
2023-05-20T05:27:54.586Z,4.37
2023-05-20T05:30:23.312Z,3.97
2023-05-20T05:33:00.307Z,4.77
2023-05-20T05:35:27.680Z,4.73
2023-05-20T05:37:56.406Z,4.60
2023-05-20T05:40:24.141Z,4.83
2023-05-20T05:43:22.573Z,4.47
2023-05-20T05:46:10.743Z,4.27
2023-05-20T05:48:38.458Z,4.27
2023-05-20T05:51:05.861Z,4.23
2023-05-20T05:53:35.360Z,4.23
2023-05-20T05:56:03.173Z,4.03
2023-05-20T05:58:30.473Z,4.90
2023-05-20T06:01:04.823Z,5.10
2023-05-20T06:03:32.245Z,4.43
2023-05-20T06:05:59.583Z,4.70
2023-05-20T06:08:26.940Z,4.77
2023-05-20T06:11:06.531Z,4.90
2023-05-20T06:13:56.594Z,4.70
2023-05-20T06:33:30.120Z,4.27
2023-05-20T06:36:01.943Z,4.00
2023-05-20T06:41:19.501Z,3.47
2023-05-20T06:43:52.464Z,4.17
2023-05-20T06:46:29.696Z,4.47
2023-05-20T06:49:06.677Z,3.90
2023-05-20T06:51:34.278Z,5.00
2023-05-20T06:54:01.825Z,3.60
2023-05-20T06:56:29.169Z,5.00
2023-05-20T06:58:56.501Z,4.37
2023-05-20T07:01:23.923Z,4.03
2023-05-20T07:03:51.413Z,4.13
2023-05-20T07:06:20.854Z,3.83
2023-05-20T07:08:48.596Z,3.33
2023-05-20T07:11:17.494Z,4.57
2023-05-20T07:13:47.494Z,3.73
2023-05-20T07:16:18.243Z,4.03
2023-05-20T07:18:50.944Z,4.03
2023-05-20T07:21:18.421Z,4.83
2023-05-20T07:24:07.655Z,3.67
2023-05-20T07:26:34.953Z,3.73
2023-05-20T07:29:02.376Z,3.63
2023-05-20T07:31:29.714Z,2.93
2023-05-20T07:33:59.484Z,3.67
2023-05-20T07:36:27.370Z,2.83
2023-05-20T07:39:02.474Z,4.10
2023-05-20T07:41:35.917Z,3.93
2023-05-20T07:44:03.803Z,3.60
2023-05-20T07:46:31.610Z,3.27
2023-05-20T07:49:01.214Z,3.60
2023-05-20T07:51:28.831Z,3.47
2023-05-20T07:53:56.308Z,3.33
2023-05-20T07:56:23.748Z,2.83
2023-05-20T07:58:54.904Z,2.87
2023-05-20T08:01:23.669Z,2.93
2023-05-20T08:03:51.180Z,2.90
2023-05-20T08:06:25.454Z,2.73
2023-05-20T08:08:56.034Z,2.33
2023-05-20T08:11:34.493Z,3.40
2023-05-20T08:17:00.685Z,3.20
2023-05-20T08:19:28.376Z,3.33
2023-05-20T08:24:23.599Z,3.07
2023-05-20T08:32:26.331Z,2.67
2023-05-20T08:37:51.593Z,2.80
2023-05-20T08:40:39.300Z,3.30
2023-05-20T08:43:06.783Z,3.00
2023-05-20T08:45:34.912Z,2.97
2023-05-20T08:48:08.753Z,2.83
2023-05-20T08:50:36.094Z,3.10
2023-05-20T08:53:03.553Z,3.20
2023-05-20T08:55:47.660Z,2.27
2023-05-20T08:58:15.985Z,3.00
2023-05-20T09:00:43.291Z,2.40
2023-05-20T09:03:11.975Z,2.53
2023-05-20T09:12:49.837Z,3.13
2023-05-20T09:15:17.308Z,2.33
2023-05-20T09:17:44.634Z,2.60
2023-05-20T09:20:13.949Z,2.00
2023-05-20T09:22:41.219Z,2.60
2023-05-20T09:27:50.832Z,2.70
2023-05-20T09:30:19.945Z,2.63
2023-05-20T09:32:53.174Z,1.80
2023-05-20T09:35:48.482Z,2.13
2023-05-20T09:41:58.257Z,1.90
2023-05-20T09:44:25.812Z,2.37
2023-05-20T09:46:53.936Z,2.10
2023-05-20T09:49:21.481Z,2.70
2023-05-20T09:51:48.856Z,1.77
2023-05-20T09:56:54.141Z,2.50
2023-05-20T09:59:22.845Z,1.97
2023-05-20T10:01:50.544Z,2.40
2023-05-20T10:04:27.615Z,2.23
2023-05-20T10:07:37.825Z,2.53
2023-05-20T10:10:23.146Z,2.23
2023-05-20T10:12:56.543Z,2.33
2023-05-20T10:15:28.120Z,1.90
2023-05-20T10:18:02.400Z,2.47
2023-05-20T10:20:30.178Z,2.97
2023-05-20T10:22:57.977Z,1.90
2023-05-20T10:25:30.907Z,2.20
2023-05-20T10:28:10.058Z,2.30
2023-05-20T10:30:38.405Z,2.23
2023-05-20T10:33:07.191Z,2.40
2023-05-20T10:35:53.346Z,2.13
2023-05-20T10:43:46.958Z,1.57
2023-05-20T10:46:33.968Z,1.70
2023-05-20T10:49:18.326Z,1.50
2023-05-20T10:51:46.941Z,1.83
2023-05-20T10:54:14.496Z,2.27
2023-05-20T10:56:51.589Z,2.00
2023-05-20T10:59:20.329Z,2.07
2023-05-20T11:01:47.868Z,1.77
2023-05-20T11:04:37.636Z,1.70
2023-05-20T11:07:32.289Z,2.27
2023-05-20T11:09:59.772Z,1.63
2023-05-20T11:12:33.432Z,1.93
2023-05-20T11:15:02.323Z,2.03
2023-05-20T11:23:21.602Z,1.60
2023-05-20T11:25:50.398Z,2.20
2023-05-20T11:28:17.825Z,2.40
2023-05-20T11:30:46.778Z,1.70
2023-05-20T11:33:26.529Z,1.93
2023-05-20T11:39:10.927Z,1.67
2023-05-20T11:41:38.312Z,2.10
2023-05-20T11:44:05.782Z,1.97
2023-05-20T11:46:41.785Z,2.10
2023-05-20T11:49:09.178Z,2.33
2023-05-20T11:51:38.183Z,2.23
2023-05-20T11:54:12.120Z,2.13
2023-05-20T11:56:39.732Z,2.03
2023-05-20T11:59:07.203Z,2.20
2023-05-20T12:01:36.371Z,2.30
2023-05-20T12:04:25.804Z,2.90
2023-05-20T12:10:03.857Z,2.43
2023-05-20T12:18:11.366Z,1.83
2023-05-20T12:20:38.849Z,2.23
2023-05-20T12:23:06.483Z,2.30
2023-05-20T12:25:33.820Z,2.00
2023-05-20T12:28:02.707Z,2.27
2023-05-20T12:30:30.903Z,2.40
2023-05-20T12:33:26.075Z,1.83
2023-05-20T12:35:55.075Z,1.93
2023-05-20T12:38:22.345Z,2.10
2023-05-20T12:40:49.661Z,2.20
2023-05-20T12:43:17.128Z,2.20
2023-05-20T12:45:44.388Z,2.20
2023-05-20T12:48:11.729Z,2.17
2023-05-20T12:50:39.081Z,1.97
2023-05-20T12:53:07.724Z,2.53
2023-05-20T12:55:35.001Z,2.60
2023-05-20T12:58:02.273Z,2.10
2023-05-20T13:00:29.663Z,2.07
2023-05-20T13:02:57.328Z,2.63
2023-05-20T13:05:24.764Z,2.07
2023-05-20T13:08:04.400Z,1.97
2023-05-20T13:10:50.451Z,2.27
2023-05-20T13:13:18.758Z,2.20
2023-05-20T13:15:46.092Z,2.37
2023-05-20T13:18:13.771Z,1.83
2023-05-20T13:20:41.124Z,1.70
2023-05-20T13:23:08.442Z,2.20
2023-05-20T13:25:55.028Z,2.00
2023-05-20T13:28:23.745Z,2.37
2023-05-20T13:30:51.502Z,2.30
2023-05-20T13:33:18.916Z,1.90
2023-05-20T13:36:04.977Z,1.77
2023-05-20T13:42:27.101Z,2.40
2023-05-20T13:44:55.879Z,2.37
2023-05-20T13:47:23.214Z,2.00
2023-05-20T13:49:50.512Z,2.37
2023-05-20T13:52:17.804Z,1.70
2023-05-20T13:54:45.145Z,2.47
2023-05-20T13:57:12.892Z,2.37
2023-05-20T13:59:40.236Z,1.57
2023-05-20T14:02:09.171Z,2.13
2023-05-20T14:04:36.899Z,1.80
2023-05-20T14:10:51.917Z,2.20
2023-05-20T14:13:19.312Z,2.17
2023-05-20T14:15:46.665Z,1.90
2023-05-20T14:18:15.522Z,1.73
2023-05-20T14:20:42.881Z,2.20
2023-05-20T14:23:10.141Z,1.83
2023-05-20T14:28:20.082Z,1.60
2023-05-20T14:30:47.858Z,1.43
2023-05-20T14:33:16.609Z,2.40
2023-05-20T14:35:51.146Z,1.97
2023-05-20T14:42:06.649Z,1.10
2023-05-20T14:44:34.035Z,1.43
2023-05-20T14:47:01.361Z,2.10
2023-05-20T14:49:30.097Z,2.00
2023-05-20T14:51:57.574Z,2.03
2023-05-20T14:54:24.945Z,1.70
2023-05-20T14:57:01.684Z,2.00
2023-05-20T14:59:29.052Z,1.83
2023-05-20T15:01:56.467Z,1.80
2023-05-20T15:04:24.107Z,2.10
2023-05-20T15:07:13.850Z,2.10
2023-05-20T15:09:54.910Z,1.93
2023-05-20T15:12:22.369Z,2.80
2023-05-20T15:14:49.780Z,2.10
2023-05-20T15:17:17.092Z,2.17
2023-05-20T15:19:44.433Z,2.10
2023-05-20T15:22:11.751Z,1.97
2023-05-20T15:27:23.204Z,1.87
2023-05-20T15:29:50.567Z,1.90
2023-05-20T15:32:17.999Z,2.00
2023-05-20T15:35:04.019Z,1.63
2023-05-20T15:37:49.974Z,1.97
2023-05-20T15:40:30.466Z,2.20
2023-05-20T15:42:59.269Z,1.87
2023-05-20T15:45:26.628Z,2.73
2023-05-20T15:47:53.978Z,2.20
2023-05-20T15:50:21.248Z,1.80
2023-05-20T15:52:48.754Z,2.07
2023-05-20T15:55:21.249Z,2.00
2023-05-20T15:57:48.654Z,2.40
2023-05-20T16:00:19.034Z,2.10
2023-05-20T16:02:46.973Z,2.40
2023-05-20T16:09:12.624Z,2.53
2023-05-20T16:11:39.865Z,2.07
2023-05-20T16:14:07.108Z,2.03
2023-05-20T16:16:36.327Z,1.97
2023-05-20T16:19:03.781Z,2.10
2023-05-20T16:21:31.060Z,1.93
2023-05-20T16:23:58.374Z,1.97
2023-05-20T16:26:26.093Z,2.03
2023-05-20T16:28:53.413Z,2.13
2023-05-20T16:31:20.742Z,2.40
2023-05-20T16:33:49.491Z,1.80
2023-05-20T16:43:05.246Z,2.30
2023-05-20T16:48:51.555Z,2.80
2023-05-20T16:51:18.896Z,2.47
2023-05-20T16:53:46.281Z,2.23
2023-05-20T19:41:56.302Z,3.03
2023-05-20T19:44:24.139Z,2.90
2023-05-20T19:46:51.448Z,2.87
2023-05-20T19:49:18.810Z,2.90
2023-05-20T19:51:46.299Z,2.90
2023-05-20T19:54:29.031Z,2.73
2023-05-20T19:56:57.933Z,3.67
2023-05-20T19:59:25.652Z,2.97
2023-05-20T20:01:53.162Z,3.90
2023-05-20T20:08:08.250Z,2.73
2023-05-20T20:10:35.557Z,2.53
2023-05-20T20:13:04.531Z,2.73
2023-05-20T20:15:32.005Z,2.70
2023-05-20T20:17:59.489Z,2.70
2023-05-20T20:20:26.890Z,4.43
2023-05-20T20:22:54.213Z,3.40
2023-05-20T20:25:21.716Z,3.63
2023-05-20T20:27:49.059Z,2.67
2023-05-20T20:30:17.796Z,3.50
2023-05-20T20:32:45.065Z,2.97
2023-05-20T20:35:12.359Z,3.30
2023-05-20T20:37:39.749Z,3.23
2023-05-20T20:40:07.521Z,2.87
2023-05-20T20:42:34.815Z,3.07
2023-05-20T20:45:02.174Z,3.10
2023-05-20T20:47:30.833Z,3.17
2023-05-20T20:49:58.188Z,3.30
2023-05-20T20:52:25.478Z,3.40
2023-05-20T20:54:52.763Z,3.40
2023-05-20T20:57:20.030Z,3.50
2023-05-20T20:59:47.419Z,3.40
2023-05-20T21:02:14.696Z,2.80
2023-05-20T21:04:43.424Z,3.33
2023-05-20T21:07:10.790Z,3.17
2023-05-20T21:09:38.071Z,3.33
2023-05-20T21:12:05.689Z,3.00
2023-05-20T21:14:32.975Z,3.33
2023-05-20T21:17:00.354Z,2.60
2023-05-20T21:19:28.079Z,2.83
2023-05-20T21:21:56.909Z,3.53
2023-05-20T21:24:24.268Z,2.73
2023-05-20T21:26:51.552Z,2.77
2023-05-20T21:29:18.810Z,3.27
2023-05-20T21:31:46.104Z,3.27
2023-05-20T21:34:13.407Z,2.73
2023-05-20T21:36:40.735Z,2.60
2023-05-20T21:39:09.348Z,3.20
2023-05-20T21:41:36.779Z,2.97
2023-05-20T21:44:04.242Z,3.63
2023-05-20T21:46:31.637Z,3.67
2023-05-20T21:48:58.906Z,2.70
2023-05-20T21:51:26.207Z,2.87
2023-05-20T21:53:53.510Z,2.70
2023-05-20T21:56:22.211Z,3.20
2023-05-20T21:58:49.678Z,2.57
2023-05-20T22:01:17.121Z,3.00
2023-05-20T22:03:50.329Z,2.80
2023-05-20T22:06:18.679Z,2.83
2023-05-20T22:08:45.980Z,3.23
2023-05-20T22:11:13.254Z,2.97
2023-05-20T22:13:41.996Z,3.03
2023-05-20T22:16:09.579Z,3.00
2023-05-20T22:18:36.860Z,2.50
2023-05-20T22:21:04.356Z,2.70
2023-05-20T22:23:31.591Z,2.63
2023-05-20T22:26:01.783Z,2.70
2023-05-20T22:28:29.110Z,3.00
2023-05-20T22:30:57.862Z,2.50
2023-05-20T22:33:25.231Z,2.40
2023-05-20T22:35:52.528Z,2.50
2023-05-20T22:38:19.848Z,3.00
2023-05-20T22:40:47.125Z,2.40
2023-05-20T22:43:14.460Z,2.97
2023-05-20T22:45:41.908Z,2.83
2023-05-20T22:48:10.605Z,3.13
2023-05-20T22:50:38.044Z,3.20
2023-05-20T22:53:05.317Z,3.57
2023-05-20T22:55:32.635Z,2.70
2023-05-20T22:58:00.054Z,3.10
2023-05-20T23:00:27.361Z,3.27
2023-05-20T23:02:57.133Z,3.00
2023-05-20T23:05:25.786Z,3.57
2023-05-20T23:07:53.393Z,3.77
2023-05-20T23:10:20.808Z,3.33
2023-05-20T23:12:48.153Z,3.33
2023-05-20T23:15:15.474Z,3.10
2023-05-20T23:17:42.871Z,3.10
2023-05-20T23:20:11.002Z,3.00
2023-05-20T23:22:39.719Z,2.97
2023-05-20T23:25:07.535Z,2.93
2023-05-20T23:27:34.830Z,2.97
2023-05-20T23:30:02.252Z,3.13
2023-05-20T23:32:29.578Z,3.30
2023-05-20T23:34:56.856Z,3.57
2023-05-20T23:37:24.126Z,3.13
2023-05-20T23:39:52.741Z,3.23
2023-05-20T23:42:20.250Z,4.03
2023-05-20T23:44:47.642Z,3.47
2023-05-20T23:47:14.949Z,3.70
2023-05-20T23:49:42.238Z,4.43
2023-05-20T23:52:09.532Z,4.43
2023-05-20T23:54:39.913Z,4.17
2023-05-20T23:57:08.647Z,4.10
2023-05-20T23:59:36.022Z,4.50
